Ansac Wyoming — 9V2947 — position and weather

sailwx.info

Track history (hours):
 
Tides and Currents Weather Stations Pressure Air Temp Water Temp Dewpoint Dewpoint Depression Visibility Wind Speed Wind Dir Waves Ship Positions

Ansac Wyoming

Last reported at 2017-Dec-11 16:59 UTC. Time now 2017-Dec-11 22:45 UTC.
Position N 59°07' E 009°37'.

Length 179 m; draft 6.6 m.

Type: Cargo ship. MMSI: 566264000.

Date/timePositionNaut miles runAvg speedWind from/ knotsBaromVisibWave heightAir tempDewpointWater temp
2017-Dec-11 16:59N 59°07' E 009°37'0 0.0
2017-Dec-11 16:29N 59°07' E 009°37'0 0.0
2017-Dec-11 15:59N 59°07' E 009°37'0 0.0
2017-Dec-11 15:29N 59°07' E 009°37'0 0.0
2017-Dec-11 14:59N 59°07' E 009°37'0 0.0
2017-Dec-11 14:29N 59°07' E 009°37'0 0.0
2017-Dec-11 13:59N 59°07' E 009°37'0 0.0
2017-Dec-11 13:29N 59°07' E 009°37'0 0.0
2017-Dec-11 12:59N 59°07' E 009°37'0 0.0
2017-Dec-11 12:29N 59°07' E 009°37'0 0.0
2017-Dec-11 11:59N 59°07' E 009°37'0 0.0
2017-Dec-11 11:29N 59°07' E 009°37'0 0.0
2017-Dec-11 10:59N 59°07' E 009°37'0 0.0
2017-Dec-11 10:29N 59°07' E 009°37'0 0.0
2017-Dec-11 09:59N 59°07' E 009°37'0 0.0
2017-Dec-11 09:29N 59°07' E 009°37'0 0.0
2017-Dec-11 08:59N 59°07' E 009°37'0 0.0
2017-Dec-11 08:29N 59°07' E 009°37'0 0.0
2017-Dec-11 07:59N 59°07' E 009°37'0 0.0
2017-Dec-11 07:29N 59°07' E 009°37'0 0.0
2017-Dec-11 06:59N 59°07' E 009°37'0 0.0
2017-Dec-11 06:29N 59°07' E 009°37'0 0.0
2017-Dec-11 05:59N 59°07' E 009°37'0 0.0
2017-Dec-11 05:29N 59°07' E 009°37'0 0.0
2017-Dec-11 04:59N 59°07' E 009°37'0 0.0
2017-Dec-11 04:29N 59°07' E 009°37'0 0.0
2017-Dec-11 03:59N 59°07' E 009°37'0 0.0
2017-Dec-11 03:29N 59°07' E 009°37'0 0.0
2017-Dec-11 02:59N 59°07' E 009°37'0 0.0
2017-Dec-11 02:29N 59°07' E 009°37'0 0.0
2017-Dec-11 01:59N 59°07' E 009°37'0 0.0
2017-Dec-11 01:29N 59°07' E 009°37'0 0.0
2017-Dec-11 00:59N 59°07' E 009°37'0 0.0
2017-Dec-11 00:29N 59°07' E 009°37'0 0.0
2017-Dec-10 23:59N 59°07' E 009°37'0 0.0
2017-Dec-10 23:29N 59°07' E 009°37'0 0.0
2017-Dec-10 22:59N 59°07' E 009°37'0 0.0
2017-Dec-10 22:29N 59°07' E 009°37'0 0.0
2017-Dec-10 21:59N 59°07' E 009°37'0 0.0
2017-Dec-10 21:29N 59°07' E 009°37'0 0.0
2017-Dec-10 20:59N 59°07' E 009°37'0 0.0
2017-Dec-10 20:29N 59°07' E 009°37'0 0.0
2017-Dec-10 19:59N 59°07' E 009°37'0 0.0
2017-Dec-10 19:29N 59°07' E 009°37'0 0.0
2017-Dec-10 18:59N 59°07' E 009°37'0 0.0
2017-Dec-10 18:29N 59°07' E 009°37'0 0.0
2017-Dec-10 17:59N 59°07' E 009°37'0 0.0
2017-Dec-10 17:29N 59°07' E 009°37'0 0.0
2017-Dec-10 16:59N 59°07' E 009°37'0 0.0
2017-Dec-10 16:29N 59°07' E 009°37'0 0.0
2017-Dec-10 16:00N 59°07' E 009°37'1 1.4
2017-Dec-10 15:30N 59°06' E 009°38'4 7.2
2017-Dec-10 15:00N 59°03' E 009°41'4 7.4
2017-Dec-10 14:30N 59°01' E 009°47'4 7.1
2017-Dec-10 14:00N 58°58' E 009°47'4 8.2
2017-Dec-10 13:30N 58°54' E 009°47'4 8.6
2017-Dec-10 13:00N 58°50' E 009°46'510.8
2017-Dec-10 12:30N 58°44' E 009°46'611.4
2017-Dec-10 12:00N 58°39' E 009°45'2613.2
2017-Dec-10 10:01N 58°15' E 009°22'014.1
2017-Dec-10 09:59N 58°15' E 009°21'714.3
2017-Dec-10 09:30N 58°10' E 009°13'714.3
2017-Dec-10 09:00N 58°04' E 009°03'714.3
2017-Dec-10 08:30N 57°59' E 008°54'8214.2
2017-Dec-10 02:42N 56°48' E 007°37'313.2
2017-Dec-10 02:29N 56°45' E 007°34'613.2
2017-Dec-10 02:00N 56°40' E 007°28'712.8
2017-Dec-10 01:28N 56°34' E 007°22'612.7
2017-Dec-10 00:59N 56°29' E 007°16'612.9
2017-Dec-10 00:30N 56°24' E 007°11'712.8
2017-Dec-10 00:00N 56°18' E 007°05'612.4
2017-Dec-09 23:29N 56°12' E 006°59'612.6
2017-Dec-09 22:59N 56°07' E 006°53'712.9
2017-Dec-09 22:29N 56°01' E 006°47'612.8
2017-Dec-09 22:00N 55°56' E 006°42'612.5
2017-Dec-09 21:29N 55°51' E 006°36'612.6
2017-Dec-09 20:59N 55°45' E 006°30'612.3
2017-Dec-09 20:30N 55°40' E 006°25'612.1
2017-Dec-09 20:00N 55°35' E 006°19'612.0
2017-Dec-09 19:29N 55°30' E 006°14'612.0
2017-Dec-09 18:59N 55°24' E 006°08'511.4
2017-Dec-09 18:30N 55°20' E 006°03'611.7
2017-Dec-09 18:00N 55°14' E 005°58'611.4
2017-Dec-09 17:29N 55°09' E 005°53'611.3
2017-Dec-09 16:59N 55°04' E 005°48'510.9
2017-Dec-09 16:30N 55°00' E 005°43'610.4
2017-Dec-09 15:58N 54°55' E 005°39'4 9.7
2017-Dec-09 15:30N 54°51' E 005°35'5 9.8
2017-Dec-09 14:58N 54°47' E 005°30'4 9.4
2017-Dec-09 14:30N 54°43' E 005°26'187 7.9
2017-Dec-08 14:46N 51°58' E 003°00'3 8.9
2017-Dec-08 14:29N 51°56' E 003°02'4 9.1
2017-Dec-08 14:00N 51°52' E 003°06'5 9.3
2017-Dec-08 13:29N 51°48' E 003°11'4 7.6
2017-Dec-08 12:59N 51°46' E 003°16'5 9.7
2017-Dec-08 12:30N 51°42' E 003°19'4 8.8
2017-Dec-08 12:00N 51°38' E 003°22'5 9.8
2017-Dec-08 11:30N 51°33' E 003°25'4 7.7
2017-Dec-08 11:00N 51°30' E 003°28'4 8.8
2017-Dec-08 10:30N 51°27' E 003°33'510.4
2017-Dec-08 10:01N 51°26' E 003°41'611.1
2017-Dec-08 09:31N 51°22' E 003°47'2 4.7
2017-Dec-08 09:01N 51°20' E 003°49'0 0.2
2017-Dec-08 08:31N 51°20' E 003°49'1 2.1
2017-Dec-08 08:01N 51°19' E 003°50'1 1.2
2017-Dec-08 07:28N 51°18' E 003°50'0 0.0
2017-Dec-08 06:58N 51°18' E 003°50'0 0.0
2017-Dec-08 06:28N 51°18' E 003°50'0 0.0
2017-Dec-08 05:55N 51°18' E 003°50'0 0.0
2017-Dec-08 05:28N 51°18' E 003°50'0 0.0
2017-Dec-08 04:58N 51°18' E 003°50'0 0.0
2017-Dec-08 04:28N 51°18' E 003°50'0 0.0
2017-Dec-08 03:55N 51°18' E 003°50'0 0.0
2017-Dec-08 03:28N 51°18' E 003°50'0 0.0
2017-Dec-08 02:55N 51°18' E 003°50'0 0.0
2017-Dec-08 02:28N 51°18' E 003°50'0 0.0
2017-Dec-08 01:58N 51°18' E 003°50'0 0.0
2017-Dec-08 01:28N 51°18' E 003°50'0 0.0
2017-Dec-08 00:58N 51°18' E 003°50'0 0.0
2017-Dec-08 00:28N 51°18' E 003°50'0 0.0
2017-Dec-07 23:58N 51°18' E 003°50'0 0.0
2017-Dec-07 23:28N 51°18' E 003°50'0 0.0
2017-Dec-07 22:58N 51°18' E 003°50'0 0.0
2017-Dec-07 22:28N 51°18' E 003°50'0 0.0
2017-Dec-07 21:58N 51°18' E 003°50'0 0.0
2017-Dec-07 21:28N 51°18' E 003°50'0 0.0
2017-Dec-07 20:58N 51°18' E 003°50'0 0.0
2017-Dec-07 20:28N 51°18' E 003°50'0 0.0
2017-Dec-07 19:58N 51°18' E 003°50'0 0.0
2017-Dec-07 19:28N 51°18' E 003°50'0 0.0
2017-Dec-07 18:58N 51°18' E 003°50'0 0.0
2017-Dec-07 18:28N 51°18' E 003°50'0 0.0
2017-Dec-07 17:58N 51°18' E 003°50'0 0.0
2017-Dec-07 17:28N 51°18' E 003°50'0 0.0
2017-Dec-07 16:58N 51°18' E 003°50'0 0.0
2017-Dec-07 16:28N 51°18' E 003°50'0 0.0
2017-Dec-07 15:58N 51°18' E 003°50'0 0.0
2017-Dec-07 15:28N 51°18' E 003°50'0 0.0
2017-Dec-07 14:58N 51°18' E 003°50'0 0.0
2017-Dec-07 14:28N 51°18' E 003°50'0 0.0
2017-Dec-07 13:58N 51°18' E 003°50'0 0.0
2017-Dec-07 13:28N 51°18' E 003°50'0 0.0
2017-Dec-07 12:58N 51°18' E 003°50'0 0.0
2017-Dec-07 12:28N 51°18' E 003°50'0 0.0
2017-Dec-07 11:58N 51°18' E 003°50'0 0.0
2017-Dec-07 11:25N 51°18' E 003°50'0 0.0
2017-Dec-07 10:58N 51°18' E 003°50'0 0.0
2017-Dec-07 10:31N 51°18' E 003°50'0 0.0
2017-Dec-07 09:58N 51°18' E 003°50'0 0.0
2017-Dec-07 09:28N 51°18' E 003°50'0 0.0
2017-Dec-07 09:01N 51°18' E 003°50'0 0.0
2017-Dec-07 08:31N 51°18' E 003°50'0 0.0
2017-Dec-07 07:58N 51°18' E 003°50'0 0.0
2017-Dec-07 07:28N 51°18' E 003°50'0 0.0
2017-Dec-07 06:55N 51°18' E 003°50'0 0.0
2017-Dec-07 06:25N 51°18' E 003°50'0 0.0
2017-Dec-07 05:58N 51°18' E 003°50'0 0.0
2017-Dec-07 05:30N 51°18' E 003°50'0 0.0
2017-Dec-07 05:01N 51°18' E 003°50'0 0.0
2017-Dec-07 04:28N 51°18' E 003°50'0 0.0
2017-Dec-07 04:01N 51°18' E 003°50'0 0.0
2017-Dec-07 03:31N 51°18' E 003°50'0 0.0
2017-Dec-07 03:00N 51°18' E 003°50'0 0.0
2017-Dec-07 02:28N 51°18' E 003°50'0 0.0
2017-Dec-07 02:00N 51°18' E 003°50'0 0.0
2017-Dec-07 01:30N 51°18' E 003°50'0 0.0
2017-Dec-07 01:00N 51°18' E 003°50'0 0.0
2017-Dec-07 00:30N 51°18' E 003°50'0 0.0
2017-Dec-06 23:58N 51°18' E 003°50'0 0.0
2017-Dec-06 23:28N 51°18' E 003°50'0 0.0
2017-Dec-06 23:00N 51°18' E 003°50'0 0.0
2017-Dec-06 22:28N 51°18' E 003°50'0 0.0
2017-Dec-06 22:00N 51°18' E 003°50'0 0.0
2017-Dec-06 21:30N 51°18' E 003°50'0 0.0
2017-Dec-06 21:00N 51°18' E 003°50'  
2017-Dec-04 09:46N 51°24' E 002°38'0 0.0
2017-Dec-04 08:49N 51°25' E 002°38'0 0.0
2017-Dec-04 08:28N 51°25' E 002°38'0 0.0
2017-Dec-04 07:19N 51°25' E 002°38'0 0.0
2017-Dec-04 06:52N 51°25' E 002°38'0 0.0
2017-Dec-04 05:40N 51°25' E 002°38'0 0.1
2017-Dec-04 05:04N 51°24' E 002°38'0 0.0
2017-Dec-04 04:55N 51°24' E 002°38'0 0.2
2017-Dec-04 04:25N 51°25' E 002°38'0 0.1
2017-Dec-04 03:52N 51°25' E 002°38'0 0.1
2017-Dec-04 03:28N 51°25' E 002°38'0 0.1
2017-Dec-04 02:55N 51°25' E 002°38'0 0.0
2017-Dec-04 02:28N 51°25' E 002°38'0 0.0
2017-Dec-04 01:49N 51°25' E 002°38'0 0.0
2017-Dec-04 01:25N 51°25' E 002°38'0 0.0
2017-Dec-04 00:58N 51°25' E 002°38'0 0.0
2017-Dec-04 00:19N 51°25' E 002°38'0 0.1
2017-Dec-03 23:55N 51°25' E 002°38'0 0.0
2017-Dec-03 23:25N 51°25' E 002°38'0 0.2
2017-Dec-03 22:58N 51°25' E 002°38'0 0.1
2017-Dec-03 22:07N 51°24' E 002°38'0 0.2
2017-Dec-03 21:52N 51°24' E 002°38'0 0.1
2017-Dec-03 21:28N 51°24' E 002°38'0 0.0
2017-Dec-03 20:55N 51°24' E 002°38'0 0.0
2017-Dec-03 20:13N 51°24' E 002°38'0 0.0
2017-Dec-03 19:43N 51°24' E 002°38'0 0.0
2017-Dec-03 19:25N 51°24' E 002°38'0 0.0
2017-Dec-03 18:46N 51°25' E 002°38'0 0.0
2017-Dec-03 18:25N 51°25' E 002°38'0 0.0
2017-Dec-03 17:49N 51°25' E 002°38'0 0.0
2017-Dec-03 17:10N 51°24' E 002°38'0 0.0
2017-Dec-03 16:43N 51°24' E 002°38'0 0.0
2017-Dec-03 16:28N 51°24' E 002°38'0 0.2
2017-Dec-03 15:28N 51°25' E 002°38'5 0.9
2017-Dec-03 10:35N 51°23' E 002°32'211.2
2017-Dec-03 10:26N 51°22' E 002°29'512.4
2017-Dec-03 10:00N 51°19' E 002°22'713.3
2017-Dec-03 09:31N 51°16' E 002°13'612.6
2017-Dec-03 09:01N 51°13' E 002°04'611.7
2017-Dec-03 08:30N 51°10' E 001°55'510.8
2017-Dec-03 08:00N 51°07' E 001°48'510.2
2017-Dec-03 07:30N 51°04' E 001°42'5 9.6
2017-Dec-03 07:01N 51°01' E 001°37'5 9.5
2017-Dec-03 06:31N 50°57' E 001°31'5 9.2
2017-Dec-03 06:00N 50°53' E 001°27'5 9.6
2017-Dec-03 05:30N 50°49' E 001°25'710.2
2017-Dec-03 04:51N 50°43' E 001°21'1611.1
2017-Dec-03 03:24N 50°32' E 001°03'611.0
2017-Dec-03 02:51N 50°29' E 000°54'411.6
2017-Dec-03 02:28N 50°28' E 000°48'611.6
2017-Dec-03 01:58N 50°26' E 000°39'1011.7
2017-Dec-03 01:06N 50°23' E 000°23'111.6
2017-Dec-03 00:58N 50°23' E 000°21'511.6
2017-Dec-03 00:30N 50°22' E 000°13'611.8
2017-Dec-03 00:01N 50°20' E 000°04'612.0
2017-Dec-02 23:30N 50°19' W 000°05'612.2
2017-Dec-02 22:59N 50°17' W 000°15'3113.7
2017-Dec-02 20:42N 50°08' W 001°02'315.5
2017-Dec-02 20:30N 50°08' W 001°06'815.8
2017-Dec-02 20:00N 50°06' W 001°18'816.3
2017-Dec-02 19:30N 50°03' W 001°30'816.7
2017-Dec-02 19:01N 50°01' W 001°43'917.1
2017-Dec-02 18:31N 49°59' W 001°56'917.0
2017-Dec-02 18:00N 49°57' W 002°08'1415.8
2017-Dec-02 17:06N 49°53' W 002°30'115.1
2017-Dec-02 17:00N 49°53' W 002°32'714.9
2017-Dec-02 16:30N 49°51' W 002°43'914.4
2017-Dec-02 15:54N 49°48' W 002°56'814.2
2017-Dec-02 15:18N 49°44' W 003°08'514.2
2017-Dec-02 14:55N 49°42' W 003°15'8711.7
2017-Dec-02 07:30N 48°58' W 005°11'610.6
2017-Dec-02 06:57N 48°54' W 005°18'510.8
2017-Dec-02 06:30N 48°52' W 005°24'611.1
2017-Dec-02 05:58N 48°49' W 005°31'611.1
2017-Dec-02 05:25N 48°44' W 005°38'1311.6
2017-Dec-02 04:18N 48°33' W 005°47'  
Track history (hours):
 
Tides and Currents Weather Stations Pressure Air Temp Water Temp Dewpoint Dewpoint Depression Visibility Wind Speed Wind Dir Waves Ship Positions

Ansac Wyoming

Last reported at 2017-Dec-11 16:59 UTC. Time now 2017-Dec-11 22:45 UTC.
Position N 59°07' E 009°37'.

Length 179 m; draft 6.6 m.

Type: Cargo ship. MMSI: 566264000.

Date/timePositionNaut miles runAvg speedWind from/ knotsBaromVisibWave heightAir tempDewpointWater temp
2017-Dec-11 16:59N 59°07' E 009°37'0 0.0
2017-Dec-11 16:29N 59°07' E 009°37'0 0.0
2017-Dec-11 15:59N 59°07' E 009°37'0 0.0
2017-Dec-11 15:29N 59°07' E 009°37'0 0.0
2017-Dec-11 14:59N 59°07' E 009°37'0 0.0
2017-Dec-11 14:29N 59°07' E 009°37'0 0.0
2017-Dec-11 13:59N 59°07' E 009°37'0 0.0
2017-Dec-11 13:29N 59°07' E 009°37'0 0.0
2017-Dec-11 12:59N 59°07' E 009°37'0 0.0
2017-Dec-11 12:29N 59°07' E 009°37'0 0.0
2017-Dec-11 11:59N 59°07' E 009°37'0 0.0
2017-Dec-11 11:29N 59°07' E 009°37'0 0.0
2017-Dec-11 10:59N 59°07' E 009°37'0 0.0
2017-Dec-11 10:29N 59°07' E 009°37'0 0.0
2017-Dec-11 09:59N 59°07' E 009°37'0 0.0
2017-Dec-11 09:29N 59°07' E 009°37'0 0.0
2017-Dec-11 08:59N 59°07' E 009°37'0 0.0
2017-Dec-11 08:29N 59°07' E 009°37'0 0.0
2017-Dec-11 07:59N 59°07' E 009°37'0 0.0
2017-Dec-11 07:29N 59°07' E 009°37'0 0.0
2017-Dec-11 06:59N 59°07' E 009°37'0 0.0
2017-Dec-11 06:29N 59°07' E 009°37'0 0.0
2017-Dec-11 05:59N 59°07' E 009°37'0 0.0
2017-Dec-11 05:29N 59°07' E 009°37'0 0.0
2017-Dec-11 04:59N 59°07' E 009°37'0 0.0
2017-Dec-11 04:29N 59°07' E 009°37'0 0.0
2017-Dec-11 03:59N 59°07' E 009°37'0 0.0
2017-Dec-11 03:29N 59°07' E 009°37'0 0.0
2017-Dec-11 02:59N 59°07' E 009°37'0 0.0
2017-Dec-11 02:29N 59°07' E 009°37'0 0.0
2017-Dec-11 01:59N 59°07' E 009°37'0 0.0
2017-Dec-11 01:29N 59°07' E 009°37'0 0.0
2017-Dec-11 00:59N 59°07' E 009°37'0 0.0
2017-Dec-11 00:29N 59°07' E 009°37'0 0.0
2017-Dec-10 23:59N 59°07' E 009°37'0 0.0
2017-Dec-10 23:29N 59°07' E 009°37'0 0.0
2017-Dec-10 22:59N 59°07' E 009°37'0 0.0
2017-Dec-10 22:29N 59°07' E 009°37'0 0.0
2017-Dec-10 21:59N 59°07' E 009°37'0 0.0
2017-Dec-10 21:29N 59°07' E 009°37'0 0.0
2017-Dec-10 20:59N 59°07' E 009°37'0 0.0
2017-Dec-10 20:29N 59°07' E 009°37'0 0.0
2017-Dec-10 19:59N 59°07' E 009°37'0 0.0
2017-Dec-10 19:29N 59°07' E 009°37'0 0.0
2017-Dec-10 18:59N 59°07' E 009°37'0 0.0
2017-Dec-10 18:29N 59°07' E 009°37'0 0.0
2017-Dec-10 17:59N 59°07' E 009°37'0 0.0
2017-Dec-10 17:29N 59°07' E 009°37'0 0.0
2017-Dec-10 16:59N 59°07' E 009°37'0 0.0
2017-Dec-10 16:29N 59°07' E 009°37'0 0.0
2017-Dec-10 16:00N 59°07' E 009°37'1 1.4
2017-Dec-10 15:30N 59°06' E 009°38'4 7.2
2017-Dec-10 15:00N 59°03' E 009°41'4 7.4
2017-Dec-10 14:30N 59°01' E 009°47'4 7.1
2017-Dec-10 14:00N 58°58' E 009°47'4 8.2
2017-Dec-10 13:30N 58°54' E 009°47'4 8.6
2017-Dec-10 13:00N 58°50' E 009°46'510.8
2017-Dec-10 12:30N 58°44' E 009°46'611.4
2017-Dec-10 12:00N 58°39' E 009°45'2613.2
2017-Dec-10 10:01N 58°15' E 009°22'014.1
2017-Dec-10 09:59N 58°15' E 009°21'714.3
2017-Dec-10 09:30N 58°10' E 009°13'714.3
2017-Dec-10 09:00N 58°04' E 009°03'714.3
2017-Dec-10 08:30N 57°59' E 008°54'8214.2
2017-Dec-10 02:42N 56°48' E 007°37'313.2
2017-Dec-10 02:29N 56°45' E 007°34'613.2
2017-Dec-10 02:00N 56°40' E 007°28'712.8
2017-Dec-10 01:28N 56°34' E 007°22'612.7
2017-Dec-10 00:59N 56°29' E 007°16'612.9
2017-Dec-10 00:30N 56°24' E 007°11'712.8
2017-Dec-10 00:00N 56°18' E 007°05'612.4
2017-Dec-09 23:29N 56°12' E 006°59'612.6
2017-Dec-09 22:59N 56°07' E 006°53'712.9
2017-Dec-09 22:29N 56°01' E 006°47'612.8
2017-Dec-09 22:00N 55°56' E 006°42'612.5
2017-Dec-09 21:29N 55°51' E 006°36'612.6
2017-Dec-09 20:59N 55°45' E 006°30'612.3
2017-Dec-09 20:30N 55°40' E 006°25'612.1
2017-Dec-09 20:00N 55°35' E 006°19'612.0
2017-Dec-09 19:29N 55°30' E 006°14'612.0
2017-Dec-09 18:59N 55°24' E 006°08'511.4
2017-Dec-09 18:30N 55°20' E 006°03'611.7
2017-Dec-09 18:00N 55°14' E 005°58'611.4
2017-Dec-09 17:29N 55°09' E 005°53'611.3
2017-Dec-09 16:59N 55°04' E 005°48'510.9
2017-Dec-09 16:30N 55°00' E 005°43'610.4
2017-Dec-09 15:58N 54°55' E 005°39'4 9.7
2017-Dec-09 15:30N 54°51' E 005°35'5 9.8
2017-Dec-09 14:58N 54°47' E 005°30'4 9.4
2017-Dec-09 14:30N 54°43' E 005°26'187 7.9
2017-Dec-08 14:46N 51°58' E 003°00'3 8.9
2017-Dec-08 14:29N 51°56' E 003°02'4 9.1
2017-Dec-08 14:00N 51°52' E 003°06'5 9.3
2017-Dec-08 13:29N 51°48' E 003°11'4 7.6
2017-Dec-08 12:59N 51°46' E 003°16'5 9.7
2017-Dec-08 12:30N 51°42' E 003°19'4 8.8
2017-Dec-08 12:00N 51°38' E 003°22'5 9.8
2017-Dec-08 11:30N 51°33' E 003°25'4 7.7
2017-Dec-08 11:00N 51°30' E 003°28'4 8.8
2017-Dec-08 10:30N 51°27' E 003°33'510.4
2017-Dec-08 10:01N 51°26' E 003°41'611.1
2017-Dec-08 09:31N 51°22' E 003°47'2 4.7
2017-Dec-08 09:01N 51°20' E 003°49'0 0.2
2017-Dec-08 08:31N 51°20' E 003°49'1 2.1
2017-Dec-08 08:01N 51°19' E 003°50'1 1.2
2017-Dec-08 07:28N 51°18' E 003°50'0 0.0
2017-Dec-08 06:58N 51°18' E 003°50'0 0.0
2017-Dec-08 06:28N 51°18' E 003°50'0 0.0
2017-Dec-08 05:55N 51°18' E 003°50'0 0.0
2017-Dec-08 05:28N 51°18' E 003°50'0 0.0
2017-Dec-08 04:58N 51°18' E 003°50'0 0.0
2017-Dec-08 04:28N 51°18' E 003°50'0 0.0
2017-Dec-08 03:55N 51°18' E 003°50'0 0.0
2017-Dec-08 03:28N 51°18' E 003°50'0 0.0
2017-Dec-08 02:55N 51°18' E 003°50'0 0.0
2017-Dec-08 02:28N 51°18' E 003°50'0 0.0
2017-Dec-08 01:58N 51°18' E 003°50'0 0.0
2017-Dec-08 01:28N 51°18' E 003°50'0 0.0
2017-Dec-08 00:58N 51°18' E 003°50'0 0.0
2017-Dec-08 00:28N 51°18' E 003°50'0 0.0
2017-Dec-07 23:58N 51°18' E 003°50'0 0.0
2017-Dec-07 23:28N 51°18' E 003°50'0 0.0
2017-Dec-07 22:58N 51°18' E 003°50'0 0.0
2017-Dec-07 22:28N 51°18' E 003°50'0 0.0
2017-Dec-07 21:58N 51°18' E 003°50'0 0.0
2017-Dec-07 21:28N 51°18' E 003°50'0 0.0
2017-Dec-07 20:58N 51°18' E 003°50'0 0.0
2017-Dec-07 20:28N 51°18' E 003°50'0 0.0
2017-Dec-07 19:58N 51°18' E 003°50'0 0.0
2017-Dec-07 19:28N 51°18' E 003°50'0 0.0
2017-Dec-07 18:58N 51°18' E 003°50'0 0.0
2017-Dec-07 18:28N 51°18' E 003°50'0 0.0
2017-Dec-07 17:58N 51°18' E 003°50'0 0.0
2017-Dec-07 17:28N 51°18' E 003°50'0 0.0
2017-Dec-07 16:58N 51°18' E 003°50'0 0.0
2017-Dec-07 16:28N 51°18' E 003°50'0 0.0
2017-Dec-07 15:58N 51°18' E 003°50'0 0.0
2017-Dec-07 15:28N 51°18' E 003°50'0 0.0
2017-Dec-07 14:58N 51°18' E 003°50'0 0.0
2017-Dec-07 14:28N 51°18' E 003°50'0 0.0
2017-Dec-07 13:58N 51°18' E 003°50'0 0.0
2017-Dec-07 13:28N 51°18' E 003°50'0 0.0
2017-Dec-07 12:58N 51°18' E 003°50'0 0.0
2017-Dec-07 12:28N 51°18' E 003°50'0 0.0
2017-Dec-07 11:58N 51°18' E 003°50'0 0.0
2017-Dec-07 11:25N 51°18' E 003°50'0 0.0
2017-Dec-07 10:58N 51°18' E 003°50'0 0.0
2017-Dec-07 10:31N 51°18' E 003°50'0 0.0
2017-Dec-07 09:58N 51°18' E 003°50'0 0.0
2017-Dec-07 09:28N 51°18' E 003°50'0 0.0
2017-Dec-07 09:01N 51°18' E 003°50'0 0.0
2017-Dec-07 08:31N 51°18' E 003°50'0 0.0
2017-Dec-07 07:58N 51°18' E 003°50'0 0.0
2017-Dec-07 07:28N 51°18' E 003°50'0 0.0
2017-Dec-07 06:55N 51°18' E 003°50'0 0.0
2017-Dec-07 06:25N 51°18' E 003°50'0 0.0
2017-Dec-07 05:58N 51°18' E 003°50'0 0.0
2017-Dec-07 05:30N 51°18' E 003°50'0 0.0
2017-Dec-07 05:01N 51°18' E 003°50'0 0.0
2017-Dec-07 04:28N 51°18' E 003°50'0 0.0
2017-Dec-07 04:01N 51°18' E 003°50'0 0.0
2017-Dec-07 03:31N 51°18' E 003°50'0 0.0
2017-Dec-07 03:00N 51°18' E 003°50'0 0.0
2017-Dec-07 02:28N 51°18' E 003°50'0 0.0
2017-Dec-07 02:00N 51°18' E 003°50'0 0.0
2017-Dec-07 01:30N 51°18' E 003°50'0 0.0
2017-Dec-07 01:00N 51°18' E 003°50'0 0.0
2017-Dec-07 00:30N 51°18' E 003°50'0 0.0
2017-Dec-06 23:58N 51°18' E 003°50'0 0.0
2017-Dec-06 23:28N 51°18' E 003°50'0 0.0
2017-Dec-06 23:00N 51°18' E 003°50'0 0.0
2017-Dec-06 22:28N 51°18' E 003°50'0 0.0
2017-Dec-06 22:00N 51°18' E 003°50'0 0.0
2017-Dec-06 21:30N 51°18' E 003°50'0 0.0
2017-Dec-06 21:00N 51°18' E 003°50'  
2017-Dec-04 09:46N 51°24' E 002°38'0 0.0
2017-Dec-04 08:49N 51°25' E 002°38'0 0.0
2017-Dec-04 08:28N 51°25' E 002°38'0 0.0
2017-Dec-04 07:19N 51°25' E 002°38'0 0.0
2017-Dec-04 06:52N 51°25' E 002°38'0 0.0
2017-Dec-04 05:40N 51°25' E 002°38'0 0.1
2017-Dec-04 05:04N 51°24' E 002°38'0 0.0
2017-Dec-04 04:55N 51°24' E 002°38'0 0.2
2017-Dec-04 04:25N 51°25' E 002°38'0 0.1
2017-Dec-04 03:52N 51°25' E 002°38'0 0.1
2017-Dec-04 03:28N 51°25' E 002°38'0 0.1
2017-Dec-04 02:55N 51°25' E 002°38'0 0.0
2017-Dec-04 02:28N 51°25' E 002°38'0 0.0
2017-Dec-04 01:49N 51°25' E 002°38'0 0.0
2017-Dec-04 01:25N 51°25' E 002°38'0 0.0
2017-Dec-04 00:58N 51°25' E 002°38'0 0.0
2017-Dec-04 00:19N 51°25' E 002°38'0 0.1
2017-Dec-03 23:55N 51°25' E 002°38'0 0.0
2017-Dec-03 23:25N 51°25' E 002°38'0 0.2
2017-Dec-03 22:58N 51°25' E 002°38'0 0.1
2017-Dec-03 22:07N 51°24' E 002°38'0 0.2
2017-Dec-03 21:52N 51°24' E 002°38'0 0.1
2017-Dec-03 21:28N 51°24' E 002°38'0 0.0
2017-Dec-03 20:55N 51°24' E 002°38'0 0.0
2017-Dec-03 20:13N 51°24' E 002°38'0 0.0
2017-Dec-03 19:43N 51°24' E 002°38'0 0.0
2017-Dec-03 19:25N 51°24' E 002°38'0 0.0
2017-Dec-03 18:46N 51°25' E 002°38'0 0.0
2017-Dec-03 18:25N 51°25' E 002°38'0 0.0
2017-Dec-03 17:49N 51°25' E 002°38'0 0.0
2017-Dec-03 17:10N 51°24' E 002°38'0 0.0
2017-Dec-03 16:43N 51°24' E 002°38'0 0.0
2017-Dec-03 16:28N 51°24' E 002°38'0 0.2
2017-Dec-03 15:28N 51°25' E 002°38'5 0.9
2017-Dec-03 10:35N 51°23' E 002°32'211.2
2017-Dec-03 10:26N 51°22' E 002°29'512.4
2017-Dec-03 10:00N 51°19' E 002°22'713.3
2017-Dec-03 09:31N 51°16' E 002°13'612.6
2017-Dec-03 09:01N 51°13' E 002°04'611.7
2017-Dec-03 08:30N 51°10' E 001°55'510.8
2017-Dec-03 08:00N 51°07' E 001°48'510.2
2017-Dec-03 07:30N 51°04' E 001°42'5 9.6
2017-Dec-03 07:01N 51°01' E 001°37'5 9.5
2017-Dec-03 06:31N 50°57' E 001°31'5 9.2
2017-Dec-03 06:00N 50°53' E 001°27'5 9.6
2017-Dec-03 05:30N 50°49' E 001°25'710.2
2017-Dec-03 04:51N 50°43' E 001°21'1611.1
2017-Dec-03 03:24N 50°32' E 001°03'611.0
2017-Dec-03 02:51N 50°29' E 000°54'411.6
2017-Dec-03 02:28N 50°28' E 000°48'611.6
2017-Dec-03 01:58N 50°26' E 000°39'1011.7
2017-Dec-03 01:06N 50°23' E 000°23'111.6
2017-Dec-03 00:58N 50°23' E 000°21'511.6
2017-Dec-03 00:30N 50°22' E 000°13'611.8
2017-Dec-03 00:01N 50°20' E 000°04'612.0
2017-Dec-02 23:30N 50°19' W 000°05'612.2
2017-Dec-02 22:59N 50°17' W 000°15'3113.7
2017-Dec-02 20:42N 50°08' W 001°02'315.5
2017-Dec-02 20:30N 50°08' W 001°06'815.8
2017-Dec-02 20:00N 50°06' W 001°18'816.3
2017-Dec-02 19:30N 50°03' W 001°30'816.7
2017-Dec-02 19:01N 50°01' W 001°43'917.1
2017-Dec-02 18:31N 49°59' W 001°56'917.0
2017-Dec-02 18:00N 49°57' W 002°08'1415.8
2017-Dec-02 17:06N 49°53' W 002°30'115.1
2017-Dec-02 17:00N 49°53' W 002°32'714.9
2017-Dec-02 16:30N 49°51' W 002°43'914.4
2017-Dec-02 15:54N 49°48' W 002°56'814.2
2017-Dec-02 15:18N 49°44' W 003°08'514.2
2017-Dec-02 14:55N 49°42' W 003°15'8711.7
2017-Dec-02 07:30N 48°58' W 005°11'610.6
2017-Dec-02 06:57N 48°54' W 005°18'510.8
2017-Dec-02 06:30N 48°52' W 005°24'611.1
2017-Dec-02 05:58N 48°49' W 005°31'611.1
2017-Dec-02 05:25N 48°44' W 005°38'1311.6
2017-Dec-02 04:18N 48°33' W 005°47'  

Dump ship's entire track history